createdAt,value
2018-12-23T00:01:58.817Z,6.60
2018-12-23T00:04:26.970Z,6.70
2018-12-23T00:06:55.184Z,6.70
2018-12-23T00:09:23.434Z,6.70
2018-12-23T00:11:51.588Z,6.80
2018-12-23T00:14:19.773Z,6.80
2018-12-23T00:16:47.929Z,6.80
2018-12-23T00:19:16.083Z,6.80
2018-12-23T00:21:44.330Z,6.80
2018-12-23T00:24:12.474Z,6.80
2018-12-23T00:26:40.648Z,6.80
2018-12-23T00:29:09.499Z,6.80
2018-12-23T00:31:37.642Z,6.70
2018-12-23T00:34:05.821Z,6.70
2018-12-23T00:36:33.964Z,6.70
2018-12-23T00:39:02.109Z,6.60
2018-12-23T00:41:30.263Z,6.70
2018-12-23T00:43:58.426Z,6.70
2018-12-23T00:46:26.586Z,6.70
2018-12-23T00:48:54.729Z,6.70
2018-12-23T00:51:22.894Z,6.80
2018-12-23T00:53:51.054Z,6.80
2018-12-23T00:56:19.266Z,6.80
2018-12-23T00:58:50.333Z,6.80
2018-12-23T01:01:18.525Z,6.80
2018-12-23T01:03:46.730Z,6.80
2018-12-23T01:06:15.006Z,6.80
2018-12-23T01:08:43.231Z,6.80
2018-12-23T01:11:11.405Z,6.80
2018-12-23T01:13:39.675Z,6.80
2018-12-23T01:16:07.946Z,6.80
2018-12-23T01:18:36.173Z,6.80
2018-12-23T01:21:04.360Z,6.80
2018-12-23T01:23:32.554Z,6.80
2018-12-23T01:26:01.541Z,6.70
2018-12-23T01:28:29.730Z,6.70
2018-12-23T01:30:57.883Z,6.70
2018-12-23T01:33:26.028Z,6.70
2018-12-23T01:35:54.173Z,6.70
2018-12-23T01:38:23.646Z,6.70
2018-12-23T01:40:51.774Z,6.70
2018-12-23T01:43:19.920Z,6.70
2018-12-23T01:45:48.551Z,6.70
2018-12-23T01:48:16.691Z,6.70
2018-12-23T01:50:44.845Z,6.70
2018-12-23T01:53:13.025Z,6.70
2018-12-23T01:55:41.171Z,6.70
2018-12-23T01:58:09.346Z,6.70
2018-12-23T02:00:37.626Z,6.70
2018-12-23T02:03:05.796Z,6.70
2018-12-23T02:05:33.945Z,6.70
2018-12-23T02:08:02.106Z,6.70
2018-12-23T02:10:30.274Z,6.70
2018-12-23T02:12:58.423Z,6.70
2018-12-23T02:15:26.618Z,6.70
2018-12-23T02:17:54.754Z,6.60
2018-12-23T02:20:23.376Z,6.60
2018-12-23T02:22:51.564Z,6.60
2018-12-23T02:25:19.854Z,6.50
2018-12-23T02:27:48.015Z,6.50
2018-12-23T02:30:16.416Z,6.40
2018-12-23T02:32:44.626Z,6.40
2018-12-23T02:35:13.325Z,6.30
2018-12-23T02:37:41.473Z,6.30
2018-12-23T02:40:10.143Z,6.20
2018-12-23T02:42:38.304Z,6.20
2018-12-23T02:45:06.727Z,6.20
2018-12-23T02:47:35.026Z,6.20
2018-12-23T02:50:03.300Z,6.10
2018-12-23T02:52:31.627Z,6.10
2018-12-23T02:54:59.769Z,6.10
2018-12-23T02:57:28.957Z,6.10
2018-12-23T02:59:57.332Z,6.10
2018-12-23T03:02:25.544Z,6.10
2018-12-23T03:04:53.791Z,6.20
2018-12-23T03:07:21.984Z,6.20
2018-12-23T03:09:50.491Z,6.20
2018-12-23T03:12:18.740Z,6.30
2018-12-23T03:14:46.941Z,6.30
2018-12-23T03:17:15.078Z,6.40
2018-12-23T03:19:43.335Z,6.40
2018-12-23T03:22:11.550Z,6.40
2018-12-23T03:24:39.737Z,6.50
2018-12-23T03:27:07.958Z,6.50
2018-12-23T03:29:36.184Z,6.50
2018-12-23T03:32:04.639Z,6.60
2018-12-23T03:34:32.857Z,6.60
2018-12-23T03:37:00.998Z,6.60
2018-12-23T03:39:29.244Z,6.60
2018-12-23T03:41:57.421Z,6.60
2018-12-23T03:44:25.588Z,6.70
2018-12-23T03:46:53.867Z,6.70
2018-12-23T03:49:22.062Z,6.70
2018-12-23T03:51:50.322Z,6.70
2018-12-23T03:54:18.671Z,6.70
2018-12-23T03:56:46.895Z,6.70
2018-12-23T03:59:15.280Z,6.70
2018-12-23T04:01:43.454Z,6.60
2018-12-23T04:04:11.617Z,6.60
2018-12-23T04:06:39.876Z,6.60
2018-12-23T04:09:08.253Z,6.60
2018-12-23T04:11:36.488Z,6.60
2018-12-23T04:14:04.646Z,6.60
2018-12-23T04:16:32.889Z,6.60
2018-12-23T04:19:01.151Z,6.60
2018-12-23T04:21:29.379Z,6.60
2018-12-23T04:23:57.794Z,6.60
2018-12-23T04:26:26.082Z,6.70
2018-12-23T04:28:54.279Z,6.70
2018-12-23T04:31:22.478Z,6.70
2018-12-23T04:33:50.690Z,6.70
2018-12-23T04:36:18.891Z,6.80
2018-12-23T04:38:48.101Z,6.80
2018-12-23T04:41:16.315Z,6.80
2018-12-23T04:43:44.479Z,6.80
2018-12-23T04:46:13.973Z,6.80
2018-12-23T04:48:42.125Z,6.80
2018-12-23T04:51:10.298Z,6.80
2018-12-23T04:53:38.668Z,6.80
2018-12-23T04:56:06.867Z,6.80
2018-12-23T04:58:35.058Z,6.80
2018-12-23T05:01:03.254Z,6.90
2018-12-23T05:03:31.899Z,6.90
2018-12-23T05:06:00.123Z,6.90
2018-12-23T05:08:28.269Z,6.90
2018-12-23T05:10:56.488Z,6.90
2018-12-23T05:13:24.634Z,6.90
2018-12-23T05:15:52.863Z,6.90
2018-12-23T05:18:21.090Z,6.90
2018-12-23T05:20:49.315Z,6.90
2018-12-23T05:23:17.527Z,6.90
2018-12-23T05:25:45.776Z,6.90
2018-12-23T05:28:13.977Z,6.90
2018-12-23T05:30:42.166Z,6.90
2018-12-23T05:33:10.377Z,6.90
2018-12-23T05:35:38.535Z,6.90
2018-12-23T05:38:06.750Z,6.90
2018-12-23T05:40:34.906Z,6.90
2018-12-23T05:43:03.056Z,6.90
2018-12-23T05:45:31.463Z,6.90
2018-12-23T05:47:59.687Z,6.90
2018-12-23T05:50:27.855Z,6.90
2018-12-23T05:52:56.011Z,6.90
2018-12-23T05:55:23.955Z,6.90
2018-12-23T05:57:52.927Z,6.90
2018-12-23T06:00:21.210Z,6.90
2018-12-23T06:02:49.468Z,6.80
2018-12-23T06:05:17.640Z,6.80
2018-12-23T06:07:45.772Z,6.80
2018-12-23T06:10:13.921Z,6.80
2018-12-23T06:12:42.061Z,6.70
2018-12-23T06:15:10.361Z,6.70
2018-12-23T06:17:38.516Z,6.60
2018-12-23T06:20:06.836Z,6.60
2018-12-23T06:22:34.961Z,6.60
2018-12-23T06:25:03.130Z,6.60
2018-12-23T06:27:31.329Z,6.60
2018-12-23T06:30:00.316Z,6.60
2018-12-23T06:32:28.589Z,6.50
2018-12-23T06:34:56.736Z,6.50
2018-12-23T06:37:24.946Z,6.50
2018-12-23T06:39:53.186Z,6.50
2018-12-23T06:42:21.511Z,6.60
2018-12-23T06:44:49.657Z,6.60
2018-12-23T06:47:19.480Z,6.60
2018-12-23T06:49:47.616Z,6.50
2018-12-23T06:52:15.819Z,6.50
2018-12-23T06:54:44.162Z,6.40
2018-12-23T06:57:12.402Z,6.40
2018-12-23T06:59:41.786Z,6.40
2018-12-23T07:02:10.253Z,6.30
2018-12-23T07:04:38.395Z,6.40
2018-12-23T07:07:07.991Z,6.30
2018-12-23T07:09:36.641Z,6.30
2018-12-23T07:12:04.884Z,6.30
2018-12-23T07:14:33.623Z,6.30
2018-12-23T07:17:01.952Z,6.20
2018-12-23T07:19:30.095Z,6.20
2018-12-23T07:21:58.284Z,6.20
2018-12-23T07:24:26.544Z,6.20
2018-12-23T07:26:55.110Z,6.20
2018-12-23T07:29:23.251Z,6.10
2018-12-23T07:31:51.457Z,6.10
2018-12-23T07:34:19.665Z,6.10
2018-12-23T07:36:49.768Z,6.10
2018-12-23T07:39:17.987Z,6.00
2018-12-23T07:41:46.247Z,6.10
2018-12-23T07:44:14.451Z,6.00
2018-12-23T07:46:42.702Z,6.00
2018-12-23T07:49:10.933Z,6.10
2018-12-23T07:51:39.151Z,6.00
2018-12-23T07:54:07.384Z,6.10
2018-12-23T07:56:36.079Z,6.10
2018-12-23T07:59:04.307Z,6.10
2018-12-23T08:01:32.449Z,6.10
2018-12-23T08:04:00.652Z,6.10
2018-12-23T08:06:28.846Z,6.10
2018-12-23T08:08:57.002Z,6.20
2018-12-23T08:11:25.166Z,6.20
2018-12-23T08:13:53.706Z,6.10
2018-12-23T08:16:21.879Z,6.20
2018-12-23T08:18:50.014Z,6.20
2018-12-23T08:21:18.153Z,6.20
2018-12-23T08:23:47.272Z,6.20
2018-12-23T08:26:15.408Z,6.20
2018-12-23T08:28:43.573Z,6.30
2018-12-23T08:31:11.730Z,6.20
2018-12-23T08:33:39.880Z,6.30
2018-12-23T08:36:08.029Z,6.30
2018-12-23T08:38:36.177Z,6.30
2018-12-23T08:41:04.422Z,6.40
2018-12-23T08:43:32.568Z,6.40
2018-12-23T08:46:00.753Z,6.40
2018-12-23T08:48:28.920Z,6.40
2018-12-23T08:50:57.068Z,6.40
2018-12-23T08:53:25.208Z,6.40
2018-12-23T08:55:53.357Z,6.50
2018-12-23T08:58:21.550Z,6.50
2018-12-23T09:00:49.836Z,6.50
2018-12-23T09:03:19.003Z,6.60
2018-12-23T09:05:47.434Z,6.60
2018-12-23T09:08:15.584Z,6.60
2018-12-23T09:10:43.726Z,6.60
2018-12-23T09:13:11.874Z,6.60
2018-12-23T09:15:40.029Z,6.70
2018-12-23T09:18:08.173Z,6.70
2018-12-23T09:20:36.372Z,6.80
2018-12-23T09:23:04.646Z,6.70
2018-12-23T09:25:32.796Z,6.80
2018-12-23T09:28:00.945Z,6.80
2018-12-23T09:30:29.734Z,6.80
2018-12-23T09:32:57.929Z,6.90
2018-12-23T09:35:26.080Z,6.90
2018-12-23T09:38:01.268Z,6.90
2018-12-23T09:40:24.371Z,6.90
2018-12-23T09:42:52.537Z,6.90
2018-12-23T09:45:20.748Z,7.00
2018-12-23T09:47:48.879Z,7.00
2018-12-23T09:50:17.078Z,7.00
2018-12-23T09:52:45.273Z,7.00
2018-12-23T09:55:13.450Z,7.10
2018-12-23T09:57:41.696Z,7.10
2018-12-23T10:00:09.957Z,7.10
2018-12-23T10:02:38.116Z,7.10
2018-12-23T10:05:06.649Z,7.20
2018-12-23T10:07:34.792Z,7.20
2018-12-23T10:10:03.766Z,7.20
2018-12-23T10:12:31.913Z,7.20
2018-12-23T10:15:00.080Z,7.20
2018-12-23T10:17:28.310Z,7.20
2018-12-23T10:19:56.487Z,7.20
2018-12-23T10:22:24.641Z,7.20
2018-12-23T10:24:52.788Z,7.30
2018-12-23T10:27:20.927Z,7.30
2018-12-23T10:29:49.099Z,7.30
2018-12-23T10:32:17.247Z,7.40
2018-12-23T10:34:45.431Z,7.40
2018-12-23T10:37:13.735Z,7.50
2018-12-23T10:39:41.886Z,7.50
2018-12-23T10:42:10.183Z,7.60
2018-12-23T10:44:38.335Z,7.60
2018-12-23T10:47:06.485Z,7.60
2018-12-23T10:49:34.657Z,7.60
2018-12-23T10:52:03.048Z,7.60
2018-12-23T10:54:31.189Z,7.60
2018-12-23T10:56:59.358Z,7.70
2018-12-23T10:59:27.521Z,7.70
2018-12-23T11:01:55.672Z,7.70
2018-12-23T11:04:23.829Z,7.70
2018-12-23T11:06:51.978Z,7.70
2018-12-23T11:09:20.126Z,7.70
2018-12-23T11:11:48.838Z,7.70
2018-12-23T11:14:45.950Z,7.70
2018-12-23T11:17:15.455Z,7.80
2018-12-23T11:19:44.949Z,7.80
2018-12-23T11:22:14.458Z,7.80
2018-12-23T11:24:43.956Z,7.80
2018-12-23T11:27:13.498Z,7.80
2018-12-23T11:29:43.150Z,7.80
2018-12-23T11:32:12.755Z,7.80
2018-12-23T11:34:42.226Z,7.80
2018-12-23T11:37:11.817Z,7.80
2018-12-23T11:39:41.383Z,7.80
2018-12-23T11:42:12.520Z,7.80
2018-12-23T11:44:41.975Z,7.80
2018-12-23T11:47:11.480Z,7.80
2018-12-23T11:49:41.412Z,7.80
2018-12-23T11:52:11.086Z,7.80
2018-12-23T11:54:40.582Z,7.80
2018-12-23T11:57:10.055Z,7.80
2018-12-23T11:59:39.562Z,7.80
2018-12-23T12:02:15.215Z,7.80
2018-12-23T12:04:40.466Z,7.80
2018-12-23T12:07:09.992Z,7.80
2018-12-23T12:09:39.655Z,7.80
2018-12-23T12:12:09.235Z,7.70
2018-12-23T12:14:38.884Z,7.70
2018-12-23T12:17:08.450Z,7.70
2018-12-23T12:19:38.037Z,7.70
2018-12-23T12:22:07.652Z,7.70
2018-12-23T12:24:37.228Z,7.70
2018-12-23T12:27:06.894Z,7.70
2018-12-23T12:29:36.470Z,7.70
2018-12-23T12:32:06.122Z,7.70
2018-12-23T12:34:35.799Z,7.70
2018-12-23T12:37:05.294Z,7.70
2018-12-23T12:39:34.960Z,7.70
2018-12-23T12:42:04.483Z,7.70
2018-12-23T12:44:34.059Z,7.70
2018-12-23T12:47:03.635Z,7.70
2018-12-23T12:49:33.151Z,7.60
2018-12-23T12:52:02.663Z,7.60
2018-12-23T12:54:32.251Z,7.60
2018-12-23T12:57:01.735Z,7.60
2018-12-23T12:59:31.224Z,7.50
2018-12-23T13:02:00.688Z,7.50
2018-12-23T13:04:30.245Z,7.50
2018-12-23T13:06:59.787Z,7.50
2018-12-23T13:09:29.379Z,7.40
2018-12-23T13:11:58.879Z,7.40
2018-12-23T13:14:28.422Z,7.40
2018-12-23T13:16:57.947Z,7.30
2018-12-23T13:19:27.615Z,7.30
2018-12-23T13:21:57.122Z,7.30
2018-12-23T13:24:26.704Z,7.20
2018-12-23T13:26:56.667Z,7.20
2018-12-23T13:29:28.058Z,7.20
2018-12-23T13:31:57.635Z,7.20
2018-12-23T13:34:27.214Z,7.20
2018-12-23T13:36:56.787Z,7.20
2018-12-23T13:39:26.293Z,7.20
2018-12-23T13:41:59.248Z,7.10
2018-12-23T13:44:51.754Z,7.10
2018-12-23T13:47:46.997Z,7.10
2018-12-23T13:50:34.855Z,7.10
2018-12-23T13:53:16.566Z,7.10
2018-12-23T13:56:11.819Z,7.00
2018-12-23T13:58:55.840Z,7.00
2018-12-23T14:01:31.443Z,7.00
2018-12-23T14:04:07.112Z,7.00
2018-12-23T14:07:05.645Z,7.00
2018-12-23T14:09:46.885Z,7.00
2018-12-23T14:12:16.411Z,6.90
2018-12-23T14:14:45.989Z,6.90
2018-12-23T14:17:16.009Z,6.90
2018-12-23T14:19:46.024Z,6.90
2018-12-23T14:22:15.485Z,6.80
2018-12-23T14:24:44.990Z,6.80
2018-12-23T14:27:14.773Z,6.80
2018-12-23T14:29:44.274Z,6.80
2018-12-23T14:32:13.742Z,6.80
2018-12-23T14:34:43.326Z,6.80
2018-12-23T14:37:12.856Z,6.80
2018-12-23T14:39:42.516Z,6.80
2018-12-23T14:42:12.176Z,6.70
2018-12-23T14:44:41.759Z,6.70
2018-12-23T14:47:11.228Z,6.70
2018-12-23T14:49:40.718Z,6.70
2018-12-23T14:52:10.418Z,6.70
2018-12-23T14:54:40.041Z,6.60
2018-12-23T14:57:09.502Z,6.60
2018-12-23T14:59:39.242Z,6.60
2018-12-23T15:02:08.780Z,6.60
2018-12-23T15:04:38.350Z,6.60
2018-12-23T15:07:07.813Z,6.60
2018-12-23T15:09:37.310Z,6.60
2018-12-23T15:12:06.835Z,6.60
2018-12-23T15:14:36.346Z,6.50
2018-12-23T15:17:07.779Z,6.50
2018-12-23T15:19:37.323Z,6.50
2018-12-23T15:22:06.785Z,6.50
2018-12-23T15:24:36.301Z,6.50
2018-12-23T15:27:05.959Z,6.50
2018-12-23T15:29:35.547Z,6.40
2018-12-23T15:32:05.013Z,6.40
2018-12-23T15:34:34.596Z,6.40
2018-12-23T15:37:04.078Z,6.40
2018-12-23T15:39:33.648Z,6.40
2018-12-23T15:42:03.105Z,6.40
2018-12-23T15:44:32.662Z,6.40
2018-12-23T15:47:02.194Z,6.40
2018-12-23T15:49:31.692Z,6.40
2018-12-23T15:52:01.242Z,6.40
2018-12-23T15:54:30.719Z,6.40
2018-12-23T15:57:00.261Z,6.40
2018-12-23T15:59:29.741Z,6.40
2018-12-23T16:01:59.215Z,6.40
2018-12-23T16:04:28.793Z,6.30
2018-12-23T16:06:58.252Z,6.30
2018-12-23T16:09:28.082Z,6.30
2018-12-23T16:11:57.551Z,6.30
2018-12-23T16:14:27.036Z,6.30
2018-12-23T16:16:56.534Z,6.30
2018-12-23T16:19:26.127Z,6.30
2018-12-23T16:21:55.673Z,6.30
2018-12-23T16:24:25.469Z,6.30
2018-12-23T16:26:55.061Z,6.30
2018-12-23T16:29:24.667Z,6.30
2018-12-23T16:31:54.287Z,6.30
